Terminal Aerodrome Forecast
Issued by NWS Melbourne, FL

Current Version | Previous Version | Text Only | Print | Product List | Glossary On
Versions: 1 2 3 4 5 6 7 8 9 10 11 12
000
FTUS42 KMLB 241725
TAFVRB
TAF
KVRB 241725Z 2418/2518 12006KT P6SM VCSH SCT040
     FM242000 11011KT P6SM FEW040 BKN250
     FM250000 14005KT P6SM FEW035 BKN250
     FM251500 16007KT P6SM SCT030=

USA.gov is the U.S. government's official web portal to all federal, state and local government web resources and services.